Algonac, Michigan
Current Conditions -  °F | °C
As of 7:21 AM on Sunday 23 Nov 2014 (Local Time) from KMTC Reporting Station
Light Rain Light Rain  
Wind Chill:   Ceiling: 4000
Heat Index:   Visibility: 10mi
Dew Point:   Wind: 9mph
Humidity: 93%   Direction: 200°SSW
Pressure: 29.91"   Gusts: NA
Location:  42.62°N, 82.53°W
Report Text: KMTC 231221Z 20008KT 10SM -RA SCT026 BKN040 OVC070 08/07 A2991
Loading
Personal Weather Stations






























Interactive Weather Map New forecast layout! Learn more

10-Day Weather Forecast

Advertisements
Track Severe Weather on mobile